sensor_id;sensor_type;location;lat;lon;timestamp;P1;durP1;ratioP1;P2;durP2;ratioP2
6787;SDS011;3431;47.966;10.268;2022-12-10T00:00:10;9.65;;;7.65;;
6787;SDS011;3431;47.966;10.268;2022-12-10T00:00:33;9.18;;;7.38;;
6787;SDS011;3431;47.966;10.268;2022-12-10T00:00:55;9.57;;;7.70;;
6787;SDS011;3431;47.966;10.268;2022-12-10T00:01:25;9.75;;;7.78;;
6787;SDS011;3431;47.966;10.268;2022-12-10T00:01:49;8.82;;;7.60;;
6787;SDS011;3431;47.966;10.268;2022-12-10T00:02:12;9.73;;;7.72;;
6787;SDS011;3431;47.966;10.268;2022-12-10T00:02:34;9.25;;;7.45;;
6787;SDS011;3431;47.966;10.268;2022-12-10T00:02:56;8.65;;;7.53;;
6787;SDS011;3431;47.966;10.268;2022-12-10T00:03:17;8.93;;;7.75;;
6787;SDS011;3431;47.966;10.268;2022-12-10T00:03:40;9.82;;;7.50;;
6787;SDS011;3431;47.966;10.268;2022-12-10T00:04:03;9.85;;;7.55;;
6787;SDS011;3431;47.966;10.268;2022-12-10T00:04:25;8.73;;;7.67;;
6787;SDS011;3431;47.966;10.268;2022-12-10T00:04:47;9.32;;;7.68;;
6787;SDS011;3431;47.966;10.268;2022-12-10T00:05:09;9.70;;;7.97;;
6787;SDS011;3431;47.966;10.268;2022-12-10T00:05:32;9.30;;;7.72;;
6787;SDS011;3431;47.966;10.268;2022-12-10T00:05:54;8.82;;;7.78;;
6787;SDS011;3431;47.966;10.268;2022-12-10T00:06:22;9.15;;;7.68;;
6787;SDS011;3431;47.966;10.268;2022-12-10T00:06:45;9.65;;;8.55;;
6787;SDS011;3431;47.966;10.268;2022-12-10T00:07:07;8.80;;;7.60;;
6787;SDS011;3431;47.966;10.268;2022-12-10T00:07:29;8.65;;;7.60;;
6787;SDS011;3431;47.966;10.268;2022-12-10T00:07:50;9.65;;;8.07;;
6787;SDS011;3431;47.966;10.268;2022-12-10T00:08:13;9.85;;;7.72;;
6787;SDS011;3431;47.966;10.268;2022-12-10T00:08:34;9.35;;;7.75;;
6787;SDS011;3431;47.966;10.268;2022-12-10T00:08:56;9.38;;;7.70;;
6787;SDS011;3431;47.966;10.268;2022-12-10T00:09:19;8.65;;;7.70;;
6787;SDS011;3431;47.966;10.268;2022-12-10T00:09:42;9.63;;;8.25;;
6787;SDS011;3431;47.966;10.268;2022-12-10T00:10:04;9.77;;;7.85;;
6787;SDS011;3431;47.966;10.268;2022-12-10T00:10:26;9.77;;;7.50;;
6787;SDS011;3431;47.966;10.268;2022-12-10T00:10:48;9.33;;;7.73;;
6787;SDS011;3431;47.966;10.268;2022-12-10T00:11:10;9.32;;;7.55;;
6787;SDS011;3431;47.966;10.268;2022-12-10T00:11:32;9.35;;;7.05;;
6787;SDS011;3431;47.966;10.268;2022-12-10T00:11:55;10.13;;;7.88;;
6787;SDS011;3431;47.966;10.268;2022-12-10T00:12:16;9.52;;;8.05;;
6787;SDS011;3431;47.966;10.268;2022-12-10T00:12:38;8.88;;;7.78;;
6787;SDS011;3431;47.966;10.268;2022-12-10T00:13:00;10.38;;;8.68;;
6787;SDS011;3431;47.966;10.268;2022-12-10T00:13:21;9.88;;;8.07;;
6787;SDS011;3431;47.966;10.268;2022-12-10T00:13:44;10.38;;;8.10;;
6787;SDS011;3431;47.966;10.268;2022-12-10T00:14:06;9.27;;;8.00;;
6787;SDS011;3431;47.966;10.268;2022-12-10T00:14:29;8.65;;;7.75;;
6787;SDS011;3431;47.966;10.268;2022-12-10T00:14:51;8.88;;;7.60;;
6787;SDS011;3431;47.966;10.268;2022-12-10T00:15:13;9.60;;;8.13;;
6787;SDS011;3431;47.966;10.268;2022-12-10T00:15:34;8.32;;;7.40;;
6787;SDS011;3431;47.966;10.268;2022-12-10T00:15:58;8.88;;;7.68;;
6787;SDS011;3431;47.966;10.268;2022-12-10T00:16:21;9.20;;;7.72;;
6787;SDS011;3431;47.966;10.268;2022-12-10T00:16:44;8.95;;;7.50;;
6787;SDS011;3431;47.966;10.268;2022-12-10T00:17:06;10.23;;;7.80;;
6787;SDS011;3431;47.966;10.268;2022-12-10T00:17:28;9.85;;;7.93;;
6787;SDS011;3431;47.966;10.268;2022-12-10T00:17:49;9.10;;;7.90;;
6787;SDS011;3431;47.966;10.268;2022-12-10T00:18:11;9.77;;;7.70;;
6787;SDS011;3431;47.966;10.268;2022-12-10T00:18:34;9.43;;;8.15;;
6787;SDS011;3431;47.966;10.268;2022-12-10T00:18:58;9.38;;;8.10;;
6787;SDS011;3431;47.966;10.268;2022-12-10T00:19:19;9.82;;;7.97;;
6787;SDS011;3431;47.966;10.268;2022-12-10T00:19:41;9.18;;;7.82;;
6787;SDS011;3431;47.966;10.268;2022-12-10T00:20:04;9.20;;;7.80;;
6787;SDS011;3431;47.966;10.268;2022-12-10T00:20:26;9.88;;;7.97;;
6787;SDS011;3431;47.966;10.268;2022-12-10T00:20:48;9.88;;;7.97;;
6787;SDS011;3431;47.966;10.268;2022-12-10T00:21:10;9.25;;;7.95;;
6787;SDS011;3431;47.966;10.268;2022-12-10T00:21:33;9.00;;;7.75;;
6787;SDS011;3431;47.966;10.268;2022-12-10T00:21:57;8.88;;;7.65;;
6787;SDS011;3431;47.966;10.268;2022-12-10T00:22:18;9.80;;;7.80;;
6787;SDS011;3431;47.966;10.268;2022-12-10T00:22:40;8.90;;;7.53;;
6787;SDS011;3431;47.966;10.268;2022-12-10T00:23:01;8.40;;;7.47;;
6787;SDS011;3431;47.966;10.268;2022-12-10T00:23:23;8.38;;;7.35;;
6787;SDS011;3431;47.966;10.268;2022-12-10T00:23:46;9.23;;;7.78;;
6787;SDS011;3431;47.966;10.268;2022-12-10T00:24:09;9.07;;;7.90;;
6787;SDS011;3431;47.966;10.268;2022-12-10T00:24:30;10.23;;;8.10;;
6787;SDS011;3431;47.966;10.268;2022-12-10T00:24:52;9.88;;;8.15;;
6787;SDS011;3431;47.966;10.268;2022-12-10T00:25:15;10.88;;;8.48;;
6787;SDS011;3431;47.966;10.268;2022-12-10T00:25:37;10.02;;;8.30;;
6787;SDS011;3431;47.966;10.268;2022-12-10T00:26:01;10.55;;;8.77;;
6787;SDS011;3431;47.966;10.268;2022-12-10T00:26:26;10.77;;;8.65;;
6787;SDS011;3431;47.966;10.268;2022-12-10T00:26:49;10.98;;;9.02;;
6787;SDS011;3431;47.966;10.268;2022-12-10T00:27:11;10.35;;;8.52;;
6787;SDS011;3431;47.966;10.268;2022-12-10T00:27:33;9.77;;;8.43;;
6787;SDS011;3431;47.966;10.268;2022-12-10T00:27:55;9.57;;;8.18;;
6787;SDS011;3431;47.966;10.268;2022-12-10T00:28:16;10.20;;;8.27;;
6787;SDS011;3431;47.966;10.268;2022-12-10T00:28:39;10.63;;;8.67;;
6787;SDS011;3431;47.966;10.268;2022-12-10T00:29:02;10.00;;;8.48;;
6787;SDS011;3431;47.966;10.268;2022-12-10T00:29:25;10.95;;;9.07;;
6787;SDS011;3431;47.966;10.268;2022-12-10T00:29:48;9.80;;;8.80;;
6787;SDS011;3431;47.966;10.268;2022-12-10T00:30:10;9.98;;;8.27;;
6787;SDS011;3431;47.966;10.268;2022-12-10T00:30:32;9.38;;;7.95;;
6787;SDS011;3431;47.966;10.268;2022-12-10T00:30:54;10.03;;;8.00;;
6787;SDS011;3431;47.966;10.268;2022-12-10T00:31:17;10.52;;;8.18;;
6787;SDS011;3431;47.966;10.268;2022-12-10T00:31:41;10.55;;;8.65;;
6787;SDS011;3431;47.966;10.268;2022-12-10T00:32:02;10.27;;;8.30;;
6787;SDS011;3431;47.966;10.268;2022-12-10T00:32:26;11.00;;;8.60;;
6787;SDS011;3431;47.966;10.268;2022-12-10T00:32:48;10.63;;;8.20;;
6787;SDS011;3431;47.966;10.268;2022-12-10T00:33:10;10.27;;;8.50;;
6787;SDS011;3431;47.966;10.268;2022-12-10T00:33:32;10.25;;;8.48;;
6787;SDS011;3431;47.966;10.268;2022-12-10T00:33:54;11.15;;;9.25;;
6787;SDS011;3431;47.966;10.268;2022-12-10T00:34:18;10.00;;;8.80;;
6787;SDS011;3431;47.966;10.268;2022-12-10T00:34:41;10.18;;;8.15;;
6787;SDS011;3431;47.966;10.268;2022-12-10T00:35:03;9.48;;;8.00;;
6787;SDS011;3431;47.966;10.268;2022-12-10T00:35:25;9.52;;;7.90;;
6787;SDS011;3431;47.966;10.268;2022-12-10T00:35:46;10.02;;;8.07;;
6787;SDS011;3431;47.966;10.268;2022-12-10T00:36:09;11.20;;;8.55;;
6787;SDS011;3431;47.966;10.268;2022-12-10T00:36:33;10.48;;;8.55;;
6787;SDS011;3431;47.966;10.268;2022-12-10T00:36:57;10.93;;;8.88;;
6787;SDS011;3431;47.966;10.268;2022-12-10T00:37:19;11.43;;;8.90;;
6787;SDS011;3431;47.966;10.268;2022-12-10T00:37:40;9.55;;;8.38;;
6787;SDS011;3431;47.966;10.268;2022-12-10T00:38:02;10.35;;;8.80;;
6787;SDS011;3431;47.966;10.268;2022-12-10T00:38:24;9.40;;;8.40;;
6787;SDS011;3431;47.966;10.268;2022-12-10T00:38:47;10.93;;;8.82;;
6787;SDS011;3431;47.966;10.268;2022-12-10T00:39:09;12.43;;;9.10;;
6787;SDS011;3431;47.966;10.268;2022-12-10T00:39:33;9.95;;;8.40;;
6787;SDS011;3431;47.966;10.268;2022-12-10T00:39:55;10.38;;;8.80;;
6787;SDS011;3431;47.966;10.268;2022-12-10T00:40:16;10.35;;;8.75;;
6787;SDS011;3431;47.966;10.268;2022-12-10T00:40:38;9.98;;;8.65;;
6787;SDS011;3431;47.966;10.268;2022-12-10T00:41:01;10.23;;;8.48;;
6787;SDS011;3431;47.966;10.268;2022-12-10T00:41:24;10.10;;;8.60;;
6787;SDS011;3431;47.966;10.268;2022-12-10T00:41:46;10.60;;;8.63;;
6787;SDS011;3431;47.966;10.268;2022-12-10T00:42:08;11.38;;;8.50;;
6787;SDS011;3431;47.966;10.268;2022-12-10T00:42:29;10.35;;;8.52;;
6787;SDS011;3431;47.966;10.268;2022-12-10T00:42:52;12.32;;;9.30;;
6787;SDS011;3431;47.966;10.268;2022-12-10T00:43:14;11.30;;;9.07;;
6787;SDS011;3431;47.966;10.268;2022-12-10T00:43:36;11.57;;;9.10;;
6787;SDS011;3431;47.966;10.268;2022-12-10T00:43:58;10.85;;;8.27;;
6787;SDS011;3431;47.966;10.268;2022-12-10T00:44:21;11.32;;;8.65;;
6787;SDS011;3431;47.966;10.268;2022-12-10T00:44:42;10.63;;;9.07;;
6787;SDS011;3431;47.966;10.268;2022-12-10T00:45:04;10.20;;;8.80;;
6787;SDS011;3431;47.966;10.268;2022-12-10T00:45:26;11.05;;;9.00;;
6787;SDS011;3431;47.966;10.268;2022-12-10T00:45:48;11.50;;;9.00;;
6787;SDS011;3431;47.966;10.268;2022-12-10T00:46:10;10.88;;;8.90;;
6787;SDS011;3431;47.966;10.268;2022-12-10T00:46:34;10.43;;;8.82;;
6787;SDS011;3431;47.966;10.268;2022-12-10T00:46:56;10.63;;;9.15;;
6787;SDS011;3431;47.966;10.268;2022-12-10T00:47:17;11.20;;;9.55;;
6787;SDS011;3431;47.966;10.268;2022-12-10T00:48:00;10.63;;;8.73;;
6787;SDS011;3431;47.966;10.268;2022-12-10T00:48:21;12.50;;;9.30;;
6787;SDS011;3431;47.966;10.268;2022-12-10T00:48:43;11.95;;;9.60;;
6787;SDS011;3431;47.966;10.268;2022-12-10T00:49:05;10.70;;;9.43;;
6787;SDS011;3431;47.966;10.268;2022-12-10T00:49:29;10.30;;;9.05;;
6787;SDS011;3431;47.966;10.268;2022-12-10T00:49:50;10.55;;;8.82;;
6787;SDS011;3431;47.966;10.268;2022-12-10T00:50:12;10.68;;;9.10;;
6787;SDS011;3431;47.966;10.268;2022-12-10T00:50:33;10.23;;;9.10;;
6787;SDS011;3431;47.966;10.268;2022-12-10T00:50:56;10.33;;;9.07;;
6787;SDS011;3431;47.966;10.268;2022-12-10T00:51:20;11.50;;;8.93;;
6787;SDS011;3431;47.966;10.268;2022-12-10T00:51:43;13.27;;;9.70;;
6787;SDS011;3431;47.966;10.268;2022-12-10T00:52:06;12.05;;;9.27;;
6787;SDS011;3431;47.966;10.268;2022-12-10T00:52:27;12.52;;;9.73;;
6787;SDS011;3431;47.966;10.268;2022-12-10T00:52:52;11.38;;;9.90;;
6787;SDS011;3431;47.966;10.268;2022-12-10T00:53:13;11.70;;;9.57;;
6787;SDS011;3431;47.966;10.268;2022-12-10T00:53:36;10.70;;;8.98;;
6787;SDS011;3431;47.966;10.268;2022-12-10T00:54:00;10.85;;;9.50;;
6787;SDS011;3431;47.966;10.268;2022-12-10T00:54:23;11.55;;;9.30;;
6787;SDS011;3431;47.966;10.268;2022-12-10T00:54:45;12.52;;;9.93;;
6787;SDS011;3431;47.966;10.268;2022-12-10T00:55:06;13.68;;;10.30;;
6787;SDS011;3431;47.966;10.268;2022-12-10T00:55:29;11.13;;;9.63;;
6787;SDS011;3431;47.966;10.268;2022-12-10T00:55:51;11.88;;;10.02;;
6787;SDS011;3431;47.966;10.268;2022-12-10T00:56:14;11.73;;;9.77;;
6787;SDS011;3431;47.966;10.268;2022-12-10T00:56:36;12.13;;;9.93;;
6787;SDS011;3431;47.966;10.268;2022-12-10T00:56:58;11.32;;;8.95;;
6787;SDS011;3431;47.966;10.268;2022-12-10T00:57:19;11.52;;;9.25;;
6787;SDS011;3431;47.966;10.268;2022-12-10T00:57:42;12.70;;;10.20;;
6787;SDS011;3431;47.966;10.268;2022-12-10T00:58:04;11.45;;;9.40;;
6787;SDS011;3431;47.966;10.268;2022-12-10T00:58:26;11.93;;;9.57;;
6787;SDS011;3431;47.966;10.268;2022-12-10T00:58:48;11.27;;;9.63;;
6787;SDS011;3431;47.966;10.268;2022-12-10T00:59:12;13.35;;;10.27;;
6787;SDS011;3431;47.966;10.268;2022-12-10T00:59:34;12.02;;;9.50;;
6787;SDS011;3431;47.966;10.268;2022-12-10T00:59:56;11.95;;;9.45;;
6787;SDS011;3431;47.966;10.268;2022-12-10T01:00:18;12.55;;;9.80;;
6787;SDS011;3431;47.966;10.268;2022-12-10T01:00:40;12.32;;;10.57;;
6787;SDS011;3431;47.966;10.268;2022-12-10T01:01:09;12.35;;;9.50;;
6787;SDS011;3431;47.966;10.268;2022-12-10T01:01:32;11.45;;;9.52;;
6787;SDS011;3431;47.966;10.268;2022-12-10T01:01:56;11.63;;;9.30;;
6787;SDS011;3431;47.966;10.268;2022-12-10T01:02:19;12.20;;;9.98;;
6787;SDS011;3431;47.966;10.268;2022-12-10T01:02:41;12.93;;;10.02;;
6787;SDS011;3431;47.966;10.268;2022-12-10T01:03:03;12.02;;;9.85;;
6787;SDS011;3431;47.966;10.268;2022-12-10T01:03:24;11.57;;;9.68;;
6787;SDS011;3431;47.966;10.268;2022-12-10T01:03:47;11.70;;;9.27;;
6787;SDS011;3431;47.966;10.268;2022-12-10T01:04:12;12.63;;;9.40;;
6787;SDS011;3431;47.966;10.268;2022-12-10T01:04:36;12.40;;;10.07;;
6787;SDS011;3431;47.966;10.268;2022-12-10T01:04:58;12.98;;;10.18;;
6787;SDS011;3431;47.966;10.268;2022-12-10T01:05:21;13.20;;;10.05;;
6787;SDS011;3431;47.966;10.268;2022-12-10T01:05:42;12.67;;;9.00;;
6787;SDS011;3431;47.966;10.268;2022-12-10T01:06:10;13.23;;;10.02;;
6787;SDS011;3431;47.966;10.268;2022-12-10T01:06:34;13.48;;;10.23;;
6787;SDS011;3431;47.966;10.268;2022-12-10T01:07:02;13.88;;;10.02;;
6787;SDS011;3431;47.966;10.268;2022-12-10T01:07:23;12.48;;;9.95;;
6787;SDS011;3431;47.966;10.268;2022-12-10T01:07:45;12.73;;;10.13;;
6787;SDS011;3431;47.966;10.268;2022-12-10T01:08:07;12.57;;;9.45;;
6787;SDS011;3431;47.966;10.268;2022-12-10T01:08:28;14.07;;;9.95;;
6787;SDS011;3431;47.966;10.268;2022-12-10T01:08:52;13.63;;;10.18;;
6787;SDS011;3431;47.966;10.268;2022-12-10T01:09:16;12.63;;;9.93;;
6787;SDS011;3431;47.966;10.268;2022-12-10T01:09:40;12.35;;;9.98;;
6787;SDS011;3431;47.966;10.268;2022-12-10T01:10:03;12.45;;;9.60;;
6787;SDS011;3431;47.966;10.268;2022-12-10T01:10:25;13.00;;;9.88;;
6787;SDS011;3431;47.966;10.268;2022-12-10T01:10:52;13.68;;;10.40;;
6787;SDS011;3431;47.966;10.268;2022-12-10T01:11:14;12.05;;;9.73;;
6787;SDS011;3431;47.966;10.268;2022-12-10T01:11:38;13.43;;;9.95;;
6787;SDS011;3431;47.966;10.268;2022-12-10T01:12:02;13.23;;;10.00;;
6787;SDS011;3431;47.966;10.268;2022-12-10T01:12:24;12.88;;;9.90;;
6787;SDS011;3431;47.966;10.268;2022-12-10T01:12:46;12.57;;;9.98;;
6787;SDS011;3431;47.966;10.268;2022-12-10T01:13:07;13.70;;;10.27;;
6787;SDS011;3431;47.966;10.268;2022-12-10T01:13:30;13.15;;;10.27;;
6787;SDS011;3431;47.966;10.268;2022-12-10T01:13:52;13.50;;;10.25;;
6787;SDS011;3431;47.966;10.268;2022-12-10T01:14:14;11.95;;;10.20;;
6787;SDS011;3431;47.966;10.268;2022-12-10T01:14:38;11.85;;;9.75;;
6787;SDS011;3431;47.966;10.268;2022-12-10T01:15:00;11.77;;;10.02;;
6787;SDS011;3431;47.966;10.268;2022-12-10T01:15:22;12.05;;;9.48;;
6787;SDS011;3431;47.966;10.268;2022-12-10T01:15:43;12.93;;;9.67;;
6787;SDS011;3431;47.966;10.268;2022-12-10T01:16:06;12.35;;;9.85;;
6787;SDS011;3431;47.966;10.268;2022-12-10T01:16:29;10.85;;;8.95;;
6787;SDS011;3431;47.966;10.268;2022-12-10T01:16:53;13.13;;;9.88;;
6787;SDS011;3431;47.966;10.268;2022-12-10T01:17:16;13.63;;;10.20;;
6787;SDS011;3431;47.966;10.268;2022-12-10T01:17:39;13.50;;;10.55;;
6787;SDS011;3431;47.966;10.268;2022-12-10T01:18:00;12.85;;;9.40;;
6787;SDS011;3431;47.966;10.268;2022-12-10T01:18:23;12.50;;;9.63;;
6787;SDS011;3431;47.966;10.268;2022-12-10T01:18:44;12.88;;;10.30;;
6787;SDS011;3431;47.966;10.268;2022-12-10T01:19:07;11.60;;;9.38;;
6787;SDS011;3431;47.966;10.268;2022-12-10T01:19:29;11.88;;;9.57;;
6787;SDS011;3431;47.966;10.268;2022-12-10T01:19:57;12.00;;;9.27;;
6787;SDS011;3431;47.966;10.268;2022-12-10T01:20:18;11.23;;;9.27;;
6787;SDS011;3431;47.966;10.268;2022-12-10T01:20:41;11.15;;;9.43;;
6787;SDS011;3431;47.966;10.268;2022-12-10T01:21:04;12.43;;;9.57;;
6787;SDS011;3431;47.966;10.268;2022-12-10T01:21:29;13.33;;;10.17;;
6787;SDS011;3431;47.966;10.268;2022-12-10T01:21:51;13.32;;;9.65;;
6787;SDS011;3431;47.966;10.268;2022-12-10T01:22:13;12.60;;;9.95;;
6787;SDS011;3431;47.966;10.268;2022-12-10T01:22:36;13.35;;;10.48;;
6787;SDS011;3431;47.966;10.268;2022-12-10T01:22:57;13.90;;;10.18;;
6787;SDS011;3431;47.966;10.268;2022-12-10T01:23:19;11.80;;;9.88;;
6787;SDS011;3431;47.966;10.268;2022-12-10T01:23:41;12.23;;;9.75;;
6787;SDS011;3431;47.966;10.268;2022-12-10T01:24:04;13.90;;;10.35;;
6787;SDS011;3431;47.966;10.268;2022-12-10T01:24:28;13.18;;;9.93;;
6787;SDS011;3431;47.966;10.268;2022-12-10T01:24:50;13.07;;;10.40;;
6787;SDS011;3431;47.966;10.268;2022-12-10T01:25:11;13.75;;;10.20;;
6787;SDS011;3431;47.966;10.268;2022-12-10T01:25:33;13.07;;;9.77;;
6787;SDS011;3431;47.966;10.268;2022-12-10T01:25:58;13.52;;;9.93;;
6787;SDS011;3431;47.966;10.268;2022-12-10T01:26:23;11.85;;;9.73;;
6787;SDS011;3431;47.966;10.268;2022-12-10T01:26:45;13.02;;;9.85;;
6787;SDS011;3431;47.966;10.268;2022-12-10T01:27:08;12.82;;;9.10;;
6787;SDS011;3431;47.966;10.268;2022-12-10T01:27:29;12.13;;;9.32;;
6787;SDS011;3431;47.966;10.268;2022-12-10T01:27:51;12.73;;;9.07;;
6787;SDS011;3431;47.966;10.268;2022-12-10T01:28:12;12.18;;;9.13;;
6787;SDS011;3431;47.966;10.268;2022-12-10T01:28:35;12.00;;;9.18;;
6787;SDS011;3431;47.966;10.268;2022-12-10T01:28:59;10.65;;;9.05;;
6787;SDS011;3431;47.966;10.268;2022-12-10T01:29:22;11.50;;;9.63;;
6787;SDS011;3431;47.966;10.268;2022-12-10T01:29:43;12.43;;;9.40;;
6787;SDS011;3431;47.966;10.268;2022-12-10T01:30:05;12.02;;;9.63;;
6787;SDS011;3431;47.966;10.268;2022-12-10T01:30:31;13.45;;;9.82;;
6787;SDS011;3431;47.966;10.268;2022-12-10T01:30:54;12.75;;;9.77;;
6787;SDS011;3431;47.966;10.268;2022-12-10T01:31:16;11.43;;;9.15;;
6787;SDS011;3431;47.966;10.268;2022-12-10T01:31:40;12.00;;;9.43;;
6787;SDS011;3431;47.966;10.268;2022-12-10T01:32:02;11.43;;;9.02;;
6787;SDS011;3431;47.966;10.268;2022-12-10T01:32:25;11.77;;;9.40;;
6787;SDS011;3431;47.966;10.268;2022-12-10T01:32:46;10.43;;;8.50;;
6787;SDS011;3431;47.966;10.268;2022-12-10T01:33:08;10.65;;;8.43;;
6787;SDS011;3431;47.966;10.268;2022-12-10T01:33:29;11.85;;;9.52;;
6787;SDS011;3431;47.966;10.268;2022-12-10T01:33:52;11.90;;;8.95;;
6787;SDS011;3431;47.966;10.268;2022-12-10T01:34:14;10.73;;;8.60;;
6787;SDS011;3431;47.966;10.268;2022-12-10T01:34:36;10.85;;;9.60;;
6787;SDS011;3431;47.966;10.268;2022-12-10T01:34:59;12.13;;;9.40;;
6787;SDS011;3431;47.966;10.268;2022-12-10T01:35:20;10.98;;;8.75;;
6787;SDS011;3431;47.966;10.268;2022-12-10T01:35:43;11.57;;;9.10;;
6787;SDS011;3431;47.966;10.268;2022-12-10T01:36:05;10.95;;;9.35;;
6787;SDS011;3431;47.966;10.268;2022-12-10T01:36:31;10.40;;;8.55;;
6787;SDS011;3431;47.966;10.268;2022-12-10T01:36:54;11.10;;;9.10;;
6787;SDS011;3431;47.966;10.268;2022-12-10T01:37:16;12.07;;;9.70;;
6787;SDS011;3431;47.966;10.268;2022-12-10T01:37:38;11.55;;;9.40;;
6787;SDS011;3431;47.966;10.268;2022-12-10T01:38:00;11.50;;;9.23;;
6787;SDS011;3431;47.966;10.268;2022-12-10T01:38:21;11.85;;;9.02;;
6787;SDS011;3431;47.966;10.268;2022-12-10T01:38:43;13.07;;;9.30;;
6787;SDS011;3431;47.966;10.268;2022-12-10T01:39:06;13.25;;;9.23;;
6787;SDS011;3431;47.966;10.268;2022-12-10T01:39:35;11.65;;;9.32;;
6787;SDS011;3431;47.966;10.268;2022-12-10T01:39:56;11.52;;;9.55;;
6787;SDS011;3431;47.966;10.268;2022-12-10T01:40:19;11.23;;;9.45;;
6787;SDS011;3431;47.966;10.268;2022-12-10T01:40:40;12.60;;;9.85;;
6787;SDS011;3431;47.966;10.268;2022-12-10T01:41:02;12.90;;;9.63;;
6787;SDS011;3431;47.966;10.268;2022-12-10T01:41:27;11.57;;;9.23;;
6787;SDS011;3431;47.966;10.268;2022-12-10T01:41:52;11.73;;;9.25;;
6787;SDS011;3431;47.966;10.268;2022-12-10T01:42:15;11.30;;;9.50;;
6787;SDS011;3431;47.966;10.268;2022-12-10T01:42:36;12.95;;;10.13;;
6787;SDS011;3431;47.966;10.268;2022-12-10T01:42:59;11.27;;;9.25;;
6787;SDS011;3431;47.966;10.268;2022-12-10T01:43:20;12.15;;;9.60;;
6787;SDS011;3431;47.966;10.268;2022-12-10T01:43:49;11.05;;;9.23;;
6787;SDS011;3431;47.966;10.268;2022-12-10T01:45:12;11.35;;;9.15;;
6787;SDS011;3431;47.966;10.268;2022-12-10T01:45:34;11.15;;;8.82;;
6787;SDS011;3431;47.966;10.268;2022-12-10T01:45:56;12.63;;;9.85;;
6787;SDS011;3431;47.966;10.268;2022-12-10T01:46:18;13.38;;;10.48;;
6787;SDS011;3431;47.966;10.268;2022-12-10T01:46:40;12.50;;;9.60;;
6787;SDS011;3431;47.966;10.268;2022-12-10T01:47:03;11.50;;;9.60;;
6787;SDS011;3431;47.966;10.268;2022-12-10T01:47:26;12.05;;;9.32;;
6787;SDS011;3431;47.966;10.268;2022-12-10T01:47:47;12.45;;;9.57;;
6787;SDS011;3431;47.966;10.268;2022-12-10T01:48:10;11.27;;;9.75;;
6787;SDS011;3431;47.966;10.268;2022-12-10T01:48:32;11.13;;;9.55;;
6787;SDS011;3431;47.966;10.268;2022-12-10T01:48:54;12.25;;;9.70;;
6787;SDS011;3431;47.966;10.268;2022-12-10T01:49:17;11.50;;;9.13;;
6787;SDS011;3431;47.966;10.268;2022-12-10T01:49:41;12.88;;;9.48;;
6787;SDS011;3431;47.966;10.268;2022-12-10T01:50:08;12.82;;;10.15;;
6787;SDS011;3431;47.966;10.268;2022-12-10T01:50:31;13.87;;;9.80;;
6787;SDS011;3431;47.966;10.268;2022-12-10T01:50:53;12.63;;;9.95;;
6787;SDS011;3431;47.966;10.268;2022-12-10T01:51:15;11.95;;;9.25;;
6787;SDS011;3431;47.966;10.268;2022-12-10T01:51:39;12.60;;;9.85;;
6787;SDS011;3431;47.966;10.268;2022-12-10T01:52:03;13.23;;;9.90;;
6787;SDS011;3431;47.966;10.268;2022-12-10T01:52:26;12.30;;;9.63;;
6787;SDS011;3431;47.966;10.268;2022-12-10T01:52:50;12.00;;;10.18;;
6787;SDS011;3431;47.966;10.268;2022-12-10T01:53:12;11.90;;;9.40;;
6787;SDS011;3431;47.966;10.268;2022-12-10T01:53:34;12.18;;;9.32;;
6787;SDS011;3431;47.966;10.268;2022-12-10T01:53:56;13.57;;;10.35;;
6787;SDS011;3431;47.966;10.268;2022-12-10T01:54:19;12.88;;;10.13;;
6787;SDS011;3431;47.966;10.268;2022-12-10T01:54:44;13.75;;;9.80;;
6787;SDS011;3431;47.966;10.268;2022-12-10T01:55:34;13.95;;;10.27;;
6787;SDS011;3431;47.966;10.268;2022-12-10T01:56:08;12.35;;;9.50;;
6787;SDS011;3431;47.966;10.268;2022-12-10T01:56:32;10.77;;;9.07;;
6787;SDS011;3431;47.966;10.268;2022-12-10T01:56:59;12.10;;;9.60;;
6787;SDS011;3431;47.966;10.268;2022-12-10T01:57:23;12.80;;;9.60;;
6787;SDS011;3431;47.966;10.268;2022-12-10T01:57:46;13.33;;;9.90;;
6787;SDS011;3431;47.966;10.268;2022-12-10T01:58:11;13.55;;;10.20;;
6787;SDS011;3431;47.966;10.268;2022-12-10T01:58:33;15.10;;;10.55;;
6787;SDS011;3431;47.966;10.268;2022-12-10T01:58:55;15.07;;;9.40;;
6787;SDS011;3431;47.966;10.268;2022-12-10T01:59:17;11.20;;;9.55;;
6787;SDS011;3431;47.966;10.268;2022-12-10T01:59:40;12.65;;;9.07;;
6787;SDS011;3431;47.966;10.268;2022-12-10T02:00:05;13.30;;;9.80;;
6787;SDS011;3431;47.966;10.268;2022-12-10T02:00:36;12.68;;;9.80;;
6787;SDS011;3431;47.966;10.268;2022-12-10T02:01:05;12.63;;;9.77;;
6787;SDS011;3431;47.966;10.268;2022-12-10T02:01:32;11.88;;;9.60;;
6787;SDS011;3431;47.966;10.268;2022-12-10T02:02:01;13.45;;;9.52;;
6787;SDS011;3431;47.966;10.268;2022-12-10T02:02:38;11.98;;;9.02;;
6787;SDS011;3431;47.966;10.268;2022-12-10T02:03:06;14.15;;;10.68;;
6787;SDS011;3431;47.966;10.268;2022-12-10T02:03:35;12.93;;;9.98;;
6787;SDS011;3431;47.966;10.268;2022-12-10T02:04:08;11.57;;;9.82;;
6787;SDS011;3431;47.966;10.268;2022-12-10T02:04:38;11.85;;;9.40;;
6787;SDS011;3431;47.966;10.268;2022-12-10T02:05:13;13.32;;;10.05;;
6787;SDS011;3431;47.966;10.268;2022-12-10T02:05:44;11.93;;;9.52;;
6787;SDS011;3431;47.966;10.268;2022-12-10T02:06:28;12.10;;;9.38;;
6787;SDS011;3431;47.966;10.268;2022-12-10T02:07:00;13.07;;;9.85;;
6787;SDS011;3431;47.966;10.268;2022-12-10T02:07:31;12.68;;;10.20;;
6787;SDS011;3431;47.966;10.268;2022-12-10T02:08:02;12.65;;;10.15;;
6787;SDS011;3431;47.966;10.268;2022-12-10T02:08:31;11.70;;;9.40;;
6787;SDS011;3431;47.966;10.268;2022-12-10T02:09:02;12.07;;;9.75;;
6787;SDS011;3431;47.966;10.268;2022-12-10T02:09:32;11.75;;;9.60;;
6787;SDS011;3431;47.966;10.268;2022-12-10T02:10:00;11.75;;;9.75;;
6787;SDS011;3431;47.966;10.268;2022-12-10T02:10:30;10.88;;;8.70;;
6787;SDS011;3431;47.966;10.268;2022-12-10T02:11:05;12.73;;;9.93;;
6787;SDS011;3431;47.966;10.268;2022-12-10T02:11:38;12.18;;;9.63;;
6787;SDS011;3431;47.966;10.268;2022-12-10T02:12:10;11.90;;;9.27;;
6787;SDS011;3431;47.966;10.268;2022-12-10T02:12:37;12.75;;;9.90;;
6787;SDS011;3431;47.966;10.268;2022-12-10T02:13:06;11.40;;;9.55;;
6787;SDS011;3431;47.966;10.268;2022-12-10T02:13:41;12.30;;;9.50;;
6787;SDS011;3431;47.966;10.268;2022-12-10T02:14:08;11.18;;;9.02;;
6787;SDS011;3431;47.966;10.268;2022-12-10T02:14:35;11.05;;;8.65;;
6787;SDS011;3431;47.966;10.268;2022-12-10T02:15:06;12.73;;;9.98;;
6787;SDS011;3431;47.966;10.268;2022-12-10T02:15:34;11.73;;;9.30;;
6787;SDS011;3431;47.966;10.268;2022-12-10T02:16:02;11.57;;;9.38;;
6787;SDS011;3431;47.966;10.268;2022-12-10T02:16:30;12.82;;;9.93;;
6787;SDS011;3431;47.966;10.268;2022-12-10T02:16:56;12.57;;;10.15;;
6787;SDS011;3431;47.966;10.268;2022-12-10T02:17:23;11.18;;;9.15;;
6787;SDS011;3431;47.966;10.268;2022-12-10T02:17:48;10.52;;;8.68;;
6787;SDS011;3431;47.966;10.268;2022-12-10T02:18:13;10.77;;;9.07;;
6787;SDS011;3431;47.966;10.268;2022-12-10T02:18:41;10.15;;;8.57;;
6787;SDS011;3431;47.966;10.268;2022-12-10T02:19:09;11.30;;;9.68;;
6787;SDS011;3431;47.966;10.268;2022-12-10T02:19:54;12.13;;;9.25;;
6787;SDS011;3431;47.966;10.268;2022-12-10T02:20:22;11.95;;;9.77;;
6787;SDS011;3431;47.966;10.268;2022-12-10T02:20:48;11.88;;;9.60;;
6787;SDS011;3431;47.966;10.268;2022-12-10T02:21:12;11.15;;;9.13;;
6787;SDS011;3431;47.966;10.268;2022-12-10T02:21:40;13.30;;;9.88;;
6787;SDS011;3431;47.966;10.268;2022-12-10T02:22:05;12.20;;;9.55;;
6787;SDS011;3431;47.966;10.268;2022-12-10T02:22:30;12.07;;;9.45;;
6787;SDS011;3431;47.966;10.268;2022-12-10T02:22:54;10.93;;;8.82;;
6787;SDS011;3431;47.966;10.268;2022-12-10T02:23:21;12.30;;;9.52;;
6787;SDS011;3431;47.966;10.268;2022-12-10T02:23:47;12.98;;;9.93;;
6787;SDS011;3431;47.966;10.268;2022-12-10T02:24:14;12.38;;;9.90;;